sensor_id;sensor_type;location;lat;lon;timestamp;pressure;altitude;pressure_sealevel;temperature;humidity
9257;BME280;4665;51.368;6.782;2023-08-07T00:02:01;100918.03;;;12.72;100.00
9257;BME280;4665;51.368;6.782;2023-08-07T00:04:28;100928.88;;;12.71;100.00
9257;BME280;4665;51.368;6.782;2023-08-07T00:06:53;100928.72;;;12.72;100.00
9257;BME280;4665;51.368;6.782;2023-08-07T00:09:19;100933.56;;;12.77;100.00
9257;BME280;4665;51.368;6.782;2023-08-07T00:11:44;100930.38;;;12.73;100.00
9257;BME280;4665;51.368;6.782;2023-08-07T00:14:09;100930.56;;;12.72;100.00
9257;BME280;4665;51.368;6.782;2023-08-07T00:16:36;100940.72;;;12.76;100.00
9257;BME280;4665;51.368;6.782;2023-08-07T00:19:02;100932.56;;;12.70;100.00
9257;BME280;4665;51.368;6.782;2023-08-07T00:21:29;100941.25;;;12.72;100.00
9257;BME280;4665;51.368;6.782;2023-08-07T00:23:54;100938.38;;;12.73;100.00
9257;BME280;4665;51.368;6.782;2023-08-07T00:26:20;100945.72;;;12.71;100.00
9257;BME280;4665;51.368;6.782;2023-08-07T00:28:46;100939.59;;;12.79;100.00
9257;BME280;4665;51.368;6.782;2023-08-07T00:31:12;100939.75;;;12.77;100.00
9257;BME280;4665;51.368;6.782;2023-08-07T00:33:37;100944.56;;;12.74;100.00
9257;BME280;4665;51.368;6.782;2023-08-07T00:36:03;100941.25;;;12.72;100.00
9257;BME280;4665;51.368;6.782;2023-08-07T00:38:29;100949.59;;;12.77;100.00
9257;BME280;4665;51.368;6.782;2023-08-07T00:40:54;100935.56;;;12.75;100.00
9257;BME280;4665;51.368;6.782;2023-08-07T00:43:20;100929.03;;;12.69;100.00
9257;BME280;4665;51.368;6.782;2023-08-07T00:45:46;100949.59;;;12.77;100.00
9257;BME280;4665;51.368;6.782;2023-08-07T00:48:13;100952.94;;;12.79;100.00
9257;BME280;4665;51.368;6.782;2023-08-07T00:50:41;100949.59;;;12.77;100.00
9257;BME280;4665;51.368;6.782;2023-08-07T00:53:07;100944.75;;;12.80;100.00
9257;BME280;4665;51.368;6.782;2023-08-07T00:55:34;100955.28;;;12.82;100.00
9257;BME280;4665;51.368;6.782;2023-08-07T00:58:00;100945.91;;;12.78;100.00
9257;BME280;4665;51.368;6.782;2023-08-07T01:00:27;100944.59;;;12.82;100.00
9257;BME280;4665;51.368;6.782;2023-08-07T01:02:54;100951.63;;;12.91;100.00
9257;BME280;4665;51.368;6.782;2023-08-07T01:05:21;100953.63;;;12.89;100.00
9257;BME280;4665;51.368;6.782;2023-08-07T01:07:47;100953.63;;;12.89;100.00
9257;BME280;4665;51.368;6.782;2023-08-07T01:10:13;100959.13;;;12.88;100.00
9257;BME280;4665;51.368;6.782;2023-08-07T01:12:52;100962.31;;;12.91;100.00
9257;BME280;4665;51.368;6.782;2023-08-07T01:15:30;100957.13;;;12.81;100.00
9257;BME280;4665;51.368;6.782;2023-08-07T01:17:56;100951.09;;;12.79;100.00
9257;BME280;4665;51.368;6.782;2023-08-07T01:20:22;100951.06;;;12.71;100.00
9257;BME280;4665;51.368;6.782;2023-08-07T01:22:48;100958.59;;;12.76;100.00
9257;BME280;4665;51.368;6.782;2023-08-07T01:25:13;100953.25;;;12.76;100.00
9257;BME280;4665;51.368;6.782;2023-08-07T01:30:30;100956.94;;;12.75;100.00
9257;BME280;4665;51.368;6.782;2023-08-07T01:33:12;100962.28;;;12.75;100.00
9257;BME280;4665;51.368;6.782;2023-08-07T01:35:45;100947.91;;;12.68;100.00
9257;BME280;4665;51.368;6.782;2023-08-07T01:38:12;100957.44;;;12.70;100.00
9257;BME280;4665;51.368;6.782;2023-08-07T01:40:39;100959.78;;;12.65;100.00
9257;BME280;4665;51.368;6.782;2023-08-07T01:43:05;100957.25;;;12.63;100.00
9257;BME280;4665;51.368;6.782;2023-08-07T01:45:31;100955.94;;;12.68;100.00
9257;BME280;4665;51.368;6.782;2023-08-07T01:47:57;100962.25;;;12.67;100.00
9257;BME280;4665;51.368;6.782;2023-08-07T01:50:23;100958.59;;;12.68;100.00
9257;BME280;4665;51.368;6.782;2023-08-07T01:52:49;100954.91;;;12.69;100.00
9257;BME280;4665;51.368;6.782;2023-08-07T01:55:16;100952.44;;;12.67;100.00
9257;BME280;4665;51.368;6.782;2023-08-07T01:57:41;100949.91;;;12.66;100.00
9257;BME280;4665;51.368;6.782;2023-08-07T02:00:07;100955.94;;;12.68;100.00
9257;BME280;4665;51.368;6.782;2023-08-07T02:02:34;100964.09;;;12.66;100.00
9257;BME280;4665;51.368;6.782;2023-08-07T02:04:59;100969.59;;;12.64;100.00
9257;BME280;4665;51.368;6.782;2023-08-07T02:07:25;100973.28;;;12.63;100.00
9257;BME280;4665;51.368;6.782;2023-08-07T02:09:50;100978.28;;;12.58;100.00
9257;BME280;4665;51.368;6.782;2023-08-07T02:12:17;100971.63;;;12.62;100.00
9257;BME280;4665;51.368;6.782;2023-08-07T02:14:42;100976.44;;;12.59;100.00
9257;BME280;4665;51.368;6.782;2023-08-07T02:17:08;100978.28;;;12.58;100.00
9257;BME280;4665;51.368;6.782;2023-08-07T02:19:33;100975.91;;;12.55;100.00
9257;BME280;4665;51.368;6.782;2023-08-07T02:21:59;100967.25;;;12.53;100.00
9257;BME280;4665;51.368;6.782;2023-08-07T02:24:24;100982.63;;;12.51;100.00
9257;BME280;4665;51.368;6.782;2023-08-07T02:26:50;100976.91;;;12.46;100.00
9257;BME280;4665;51.368;6.782;2023-08-07T02:29:15;100979.09;;;12.51;100.00
9257;BME280;4665;51.368;6.782;2023-08-07T02:31:40;100975.44;;;12.52;100.00
9257;BME280;4665;51.368;6.782;2023-08-07T02:34:06;100983.41;;;12.43;100.00
9257;BME280;4665;51.368;6.782;2023-08-07T02:36:32;100984.91;;;12.46;100.00
9257;BME280;4665;51.368;6.782;2023-08-07T02:38:57;100985.25;;;12.43;100.00
9257;BME280;4665;51.368;6.782;2023-08-07T02:41:23;100988.59;;;12.45;100.00
9257;BME280;4665;51.368;6.782;2023-08-07T02:43:48;100997.94;;;12.41;100.00
9257;BME280;4665;51.368;6.782;2023-08-07T02:46:14;101009.63;;;12.40;100.00
9257;BME280;4665;51.368;6.782;2023-08-07T02:48:39;101000.41;;;12.34;100.00
9257;BME280;4665;51.368;6.782;2023-08-07T02:51:05;101001.25;;;12.35;100.00
9257;BME280;4665;51.368;6.782;2023-08-07T02:53:31;101009.56;;;12.32;100.00
9257;BME280;4665;51.368;6.782;2023-08-07T02:55:56;101001.75;;;12.38;100.00
9257;BME280;4665;51.368;6.782;2023-08-07T02:58:22;101012.13;;;12.41;100.00
9257;BME280;4665;51.368;6.782;2023-08-07T03:00:47;101003.44;;;12.39;100.00
9257;BME280;4665;51.368;6.782;2023-08-07T03:03:13;101008.94;;;12.38;100.00
9257;BME280;4665;51.368;6.782;2023-08-07T03:05:38;101003.59;;;12.38;100.00
9257;BME280;4665;51.368;6.782;2023-08-07T03:08:04;101007.44;;;12.35;100.00
9257;BME280;4665;51.368;6.782;2023-08-07T03:10:29;101005.25;;;12.31;100.00
9257;BME280;4665;51.368;6.782;2023-08-07T03:12:55;101006.41;;;12.28;100.00
9257;BME280;4665;51.368;6.782;2023-08-07T03:15:20;101007.91;;;12.31;100.00
9257;BME280;4665;51.368;6.782;2023-08-07T03:17:46;101000.41;;;12.34;100.00
9257;BME280;4665;51.368;6.782;2023-08-07T03:20:11;101009.94;;;12.37;100.00
9257;BME280;4665;51.368;6.782;2023-08-07T03:22:37;100997.25;;;12.39;100.00
9257;BME280;4665;51.368;6.782;2023-08-07T03:25:03;101004.97;;;12.42;100.00
9257;BME280;4665;51.368;6.782;2023-08-07T03:27:29;101005.66;;;12.44;100.00
9257;BME280;4665;51.368;6.782;2023-08-07T03:29:54;101002.63;;;12.47;100.00
9257;BME280;4665;51.368;6.782;2023-08-07T03:32:20;101000.59;;;12.41;100.00
9257;BME280;4665;51.368;6.782;2023-08-07T03:34:45;101000.28;;;12.44;100.00
9257;BME280;4665;51.368;6.782;2023-08-07T03:37:11;101006.47;;;12.45;100.00
9257;BME280;4665;51.368;6.782;2023-08-07T03:39:36;101021.97;;;12.41;100.00
9257;BME280;4665;51.368;6.782;2023-08-07T03:42:02;101010.47;;;12.40;100.00
9257;BME280;4665;51.368;6.782;2023-08-07T03:44:27;101009.44;;;12.41;100.00
9257;BME280;4665;51.368;6.782;2023-08-07T03:46:53;101002.59;;;12.39;100.00
9257;BME280;4665;51.368;6.782;2023-08-07T03:49:21;101004.28;;;12.40;100.00
9257;BME280;4665;51.368;6.782;2023-08-07T03:51:46;101009.78;;;12.38;100.00
9257;BME280;4665;51.368;6.782;2023-08-07T03:54:12;101021.00;;;12.42;100.00
9257;BME280;4665;51.368;6.782;2023-08-07T03:56:37;101022.31;;;12.46;100.00
9257;BME280;4665;51.368;6.782;2023-08-07T03:59:03;101014.78;;;12.41;100.00
9257;BME280;4665;51.368;6.782;2023-08-07T04:01:29;101013.97;;;12.41;100.00
9257;BME280;4665;51.368;6.782;2023-08-07T04:03:54;101018.53;;;12.49;100.00
9257;BME280;4665;51.368;6.782;2023-08-07T04:06:20;100999.28;;;12.45;100.00
9257;BME280;4665;51.368;6.782;2023-08-07T04:08:46;101008.31;;;12.52;100.00
9257;BME280;4665;51.368;6.782;2023-08-07T04:11:12;101011.00;;;12.52;100.00
9257;BME280;4665;51.368;6.782;2023-08-07T04:13:38;100996.97;;;12.50;100.00
9257;BME280;4665;51.368;6.782;2023-08-07T04:16:04;101001.28;;;12.43;100.00
9257;BME280;4665;51.368;6.782;2023-08-07T04:18:32;101001.63;;;12.40;100.00
9257;BME280;4665;51.368;6.782;2023-08-07T04:20:58;101000.94;;;12.46;100.00
9257;BME280;4665;51.368;6.782;2023-08-07T04:23:24;101001.31;;;12.51;100.00
9257;BME280;4665;51.368;6.782;2023-08-07T04:25:51;101009.84;;;12.55;100.00
9257;BME280;4665;51.368;6.782;2023-08-07T04:28:17;101019.69;;;12.54;100.00
9257;BME280;4665;51.368;6.782;2023-08-07T04:30:55;101017.16;;;12.53;100.00
9257;BME280;4665;51.368;6.782;2023-08-07T04:33:20;101017.34;;;12.51;100.00
9257;BME280;4665;51.368;6.782;2023-08-07T04:35:46;101011.69;;;12.54;100.00
9257;BME280;4665;51.368;6.782;2023-08-07T04:38:13;101014.00;;;12.49;100.00
9257;BME280;4665;51.368;6.782;2023-08-07T04:40:46;101014.34;;;12.54;100.00
9257;BME280;4665;51.368;6.782;2023-08-07T04:43:16;101012.50;;;12.55;100.00
9257;BME280;4665;51.368;6.782;2023-08-07T04:45:42;101026.69;;;12.47;100.00
9257;BME280;4665;51.368;6.782;2023-08-07T04:48:07;101023.66;;;12.42;100.00
9257;BME280;4665;51.368;6.782;2023-08-07T04:50:34;101026.63;;;12.39;100.00
9257;BME280;4665;51.368;6.782;2023-08-07T04:52:59;101024.16;;;12.37;100.00
9257;BME280;4665;51.368;6.782;2023-08-07T04:55:25;101022.09;;;12.31;100.00
9257;BME280;4665;51.368;6.782;2023-08-07T04:57:50;101020.91;;;12.26;100.00
9257;BME280;4665;51.368;6.782;2023-08-07T05:00:19;101030.44;;;12.28;100.00
9257;BME280;4665;51.368;6.782;2023-08-07T05:02:45;101030.09;;;12.23;100.00
9257;BME280;4665;51.368;6.782;2023-08-07T05:05:10;101021.41;;;12.21;100.00
9257;BME280;4665;51.368;6.782;2023-08-07T05:07:36;101022.91;;;12.24;100.00
9257;BME280;4665;51.368;6.782;2023-08-07T05:10:02;101025.59;;;12.24;100.00
9257;BME280;4665;51.368;6.782;2023-08-07T05:12:28;101022.56;;;12.18;100.00
9257;BME280;4665;51.368;6.782;2023-08-07T05:14:54;101021.00;;;12.16;100.00
9257;BME280;4665;51.368;6.782;2023-08-07T05:17:19;101024.53;;;12.16;100.00
9257;BME280;4665;51.368;6.782;2023-08-07T05:19:45;101022.56;;;12.18;100.00
9257;BME280;4665;51.368;6.782;2023-08-07T05:22:10;101018.66;;;12.13;100.00
9257;BME280;4665;51.368;6.782;2023-08-07T05:24:36;101011.19;;;12.16;100.00
9257;BME280;4665;51.368;6.782;2023-08-07T05:27:05;101030.56;;;12.18;100.00
9257;BME280;4665;51.368;6.782;2023-08-07T05:29:33;101021.53;;;12.19;100.00
9257;BME280;4665;51.368;6.782;2023-08-07T05:31:59;101022.72;;;12.17;100.00
9257;BME280;4665;51.368;6.782;2023-08-07T05:34:24;101033.53;;;12.15;100.00
9257;BME280;4665;51.368;6.782;2023-08-07T05:36:49;101032.56;;;12.16;100.00
9257;BME280;4665;51.368;6.782;2023-08-07T05:39:15;101027.50;;;12.13;100.00
9257;BME280;4665;51.368;6.782;2023-08-07T05:41:40;101030.88;;;12.15;100.00
9257;BME280;4665;51.368;6.782;2023-08-07T05:44:06;101048.59;;;12.16;100.00
9257;BME280;4665;51.368;6.782;2023-08-07T05:46:31;101042.03;;;12.11;100.00
9257;BME280;4665;51.368;6.782;2023-08-07T05:48:57;101047.22;;;12.12;100.00
9257;BME280;4665;51.368;6.782;2023-08-07T05:51:22;101056.88;;;12.13;100.00
9257;BME280;4665;51.368;6.782;2023-08-07T05:53:48;101048.06;;;12.13;100.00
9257;BME280;4665;51.368;6.782;2023-08-07T05:56:13;101062.91;;;12.15;100.00
9257;BME280;4665;51.368;6.782;2023-08-07T05:58:39;101059.25;;;12.16;100.00
9257;BME280;4665;51.368;6.782;2023-08-07T06:01:05;101068.25;;;12.15;100.00
9257;BME280;4665;51.368;6.782;2023-08-07T06:03:31;101065.94;;;12.20;100.00
9257;BME280;4665;51.368;6.782;2023-08-07T06:05:57;101058.94;;;12.19;100.00
9257;BME280;4665;51.368;6.782;2023-08-07T06:08:22;101042.59;;;12.23;100.00
9257;BME280;4665;51.368;6.782;2023-08-07T06:10:48;101057.09;;;12.20;100.00
9257;BME280;4665;51.368;6.782;2023-08-07T06:13:13;101072.50;;;12.26;100.00
9257;BME280;4665;51.368;6.782;2023-08-07T06:15:39;101078.19;;;12.31;100.00
9257;BME280;4665;51.368;6.782;2023-08-07T06:18:04;101064.00;;;12.31;100.00
9257;BME280;4665;51.368;6.782;2023-08-07T06:20:30;101063.88;;;12.32;100.00
9257;BME280;4665;51.368;6.782;2023-08-07T06:22:55;101078.75;;;12.35;100.00
9257;BME280;4665;51.368;6.782;2023-08-07T06:25:21;101079.25;;;12.38;100.00
9257;BME280;4665;51.368;6.782;2023-08-07T06:27:46;101073.38;;;12.35;100.00
9257;BME280;4665;51.368;6.782;2023-08-07T06:30:12;101077.78;;;12.44;100.00
9257;BME280;4665;51.368;6.782;2023-08-07T06:32:41;101094.31;;;12.48;100.00
9257;BME280;4665;51.368;6.782;2023-08-07T06:35:07;101081.09;;;12.46;100.00
9257;BME280;4665;51.368;6.782;2023-08-07T06:37:33;101092.19;;;12.51;100.00
9257;BME280;4665;51.368;6.782;2023-08-07T06:39:58;101096.19;;;12.55;100.00
9257;BME280;4665;51.368;6.782;2023-08-07T06:42:24;101097.03;;;12.56;100.00
9257;BME280;4665;51.368;6.782;2023-08-07T06:44:49;101114.88;;;12.55;100.00
9257;BME280;4665;51.368;6.782;2023-08-07T06:47:15;101104.88;;;12.57;100.00
9257;BME280;4665;51.368;6.782;2023-08-07T06:49:40;101102.88;;;12.59;100.00
9257;BME280;4665;51.368;6.782;2023-08-07T06:52:06;101111.25;;;12.64;100.00
9257;BME280;4665;51.368;6.782;2023-08-07T06:54:31;101111.78;;;12.68;100.00
9257;BME280;4665;51.368;6.782;2023-08-07T06:56:57;101105.44;;;12.69;100.00
9257;BME280;4665;51.368;6.782;2023-08-07T06:59:22;101106.63;;;12.75;100.00
9257;BME280;4665;51.368;6.782;2023-08-07T07:01:49;101103.16;;;12.82;100.00
9257;BME280;4665;51.368;6.782;2023-08-07T07:04:14;101117.19;;;12.84;100.00
9257;BME280;4665;51.368;6.782;2023-08-07T07:06:39;101115.88;;;12.89;100.00
9257;BME280;4665;51.368;6.782;2023-08-07T07:09:05;101118.22;;;12.92;100.00
9257;BME280;4665;51.368;6.782;2023-08-07T07:11:30;101132.44;;;12.92;100.00
9257;BME280;4665;51.368;6.782;2023-08-07T07:13:56;101135.38;;;12.81;100.00
9257;BME280;4665;51.368;6.782;2023-08-07T07:16:21;101137.28;;;12.89;100.00
9257;BME280;4665;51.368;6.782;2023-08-07T07:18:49;101135.09;;;12.92;100.00
9257;BME280;4665;51.368;6.782;2023-08-07T07:21:14;101139.78;;;12.90;100.00
9257;BME280;4665;51.368;6.782;2023-08-07T07:23:40;101137.06;;;12.82;100.00
9257;BME280;4665;51.368;6.782;2023-08-07T07:26:05;101144.28;;;12.81;100.00
9257;BME280;4665;51.368;6.782;2023-08-07T07:28:31;101141.78;;;12.88;100.00
9257;BME280;4665;51.368;6.782;2023-08-07T07:30:59;101144.13;;;12.91;100.00
9257;BME280;4665;51.368;6.782;2023-08-07T07:33:25;101154.19;;;12.97;100.00
9257;BME280;4665;51.368;6.782;2023-08-07T07:35:52;101149.19;;;13.02;100.00
9257;BME280;4665;51.368;6.782;2023-08-07T07:38:18;101159.22;;;13.00;100.00
9257;BME280;4665;51.368;6.782;2023-08-07T07:40:49;101166.03;;;12.95;100.00
9257;BME280;4665;51.368;6.782;2023-08-07T07:43:14;101159.06;;;13.02;100.00
9257;BME280;4665;51.368;6.782;2023-08-07T07:45:40;101171.94;;;13.07;100.00
9257;BME280;4665;51.368;6.782;2023-08-07T07:48:06;101180.63;;;13.00;100.00
9257;BME280;4665;51.368;6.782;2023-08-07T07:50:33;101176.25;;;12.99;100.00
9257;BME280;4665;51.368;6.782;2023-08-07T07:52:58;101182.66;;;13.07;100.00
9257;BME280;4665;51.368;6.782;2023-08-07T07:55:25;101180.97;;;13.05;100.00
9257;BME280;4665;51.368;6.782;2023-08-07T07:57:50;101181.78;;;13.06;100.00
9257;BME280;4665;51.368;6.782;2023-08-07T08:00:16;101201.84;;;13.02;100.00
9257;BME280;4665;51.368;6.782;2023-08-07T08:02:41;101204.06;;;13.07;100.00
9257;BME280;4665;51.368;6.782;2023-08-07T08:05:08;101212.06;;;13.07;100.00
9257;BME280;4665;51.368;6.782;2023-08-07T08:07:36;101219.63;;;13.11;100.00
9257;BME280;4665;51.368;6.782;2023-08-07T08:10:02;101212.44;;;13.12;100.00
9257;BME280;4665;51.368;6.782;2023-08-07T08:12:30;101212.78;;;13.17;100.00
9257;BME280;4665;51.368;6.782;2023-08-07T08:14:55;101222.31;;;13.19;100.00
9257;BME280;4665;51.368;6.782;2023-08-07T08:17:21;101221.16;;;13.22;100.00
9257;BME280;4665;51.368;6.782;2023-08-07T08:19:46;101222.16;;;13.21;100.00
9257;BME280;4665;51.368;6.782;2023-08-07T08:22:11;101228.00;;;13.16;100.00
9257;BME280;4665;51.368;6.782;2023-08-07T08:24:37;101232.81;;;13.13;100.00
9257;BME280;4665;51.368;6.782;2023-08-07T08:27:04;101242.97;;;13.35;100.00
9257;BME280;4665;51.368;6.782;2023-08-07T08:29:29;101232.59;;;13.32;100.00
9257;BME280;4665;51.368;6.782;2023-08-07T08:31:54;101240.97;;;13.37;100.00
9257;BME280;4665;51.368;6.782;2023-08-07T08:34:20;101244.97;;;13.33;100.00
9257;BME280;4665;51.368;6.782;2023-08-07T08:36:47;101250.47;;;13.32;100.00
9257;BME280;4665;51.368;6.782;2023-08-07T08:39:12;101248.03;;;13.46;100.00
9257;BME280;4665;51.368;6.782;2023-08-07T08:41:39;101251.06;;;13.52;100.00
9257;BME280;4665;51.368;6.782;2023-08-07T08:44:07;101245.72;;;13.52;100.00
9257;BME280;4665;51.368;6.782;2023-08-07T08:46:33;101254.75;;;13.59;100.00
9257;BME280;4665;51.368;6.782;2023-08-07T08:49:01;101257.78;;;13.56;100.00
9257;BME280;4665;51.368;6.782;2023-08-07T08:51:29;101263.47;;;13.61;100.00
9257;BME280;4665;51.368;6.782;2023-08-07T08:53:55;101272.53;;;13.68;100.00
9257;BME280;4665;51.368;6.782;2023-08-07T08:56:22;101269.50;;;13.71;100.00
9257;BME280;4665;51.368;6.782;2023-08-07T08:58:51;101267.22;;;13.76;100.00
9257;BME280;4665;51.368;6.782;2023-08-07T09:01:17;101260.53;;;13.88;100.00
9257;BME280;4665;51.368;6.782;2023-08-07T09:03:44;101245.47;;;13.96;100.00
9257;BME280;4665;51.368;6.782;2023-08-07T09:06:13;101259.69;;;13.96;100.00
9257;BME280;4665;51.368;6.782;2023-08-07T09:08:43;101264.22;;;13.96;100.00
9257;BME280;4665;51.368;6.782;2023-08-07T09:11:10;101272.75;;;13.99;100.00
9257;BME280;4665;51.368;6.782;2023-08-07T09:13:37;101269.44;;;13.97;100.00
9257;BME280;4665;51.368;6.782;2023-08-07T09:16:04;101267.09;;;14.02;100.00
9257;BME280;4665;51.368;6.782;2023-08-07T09:18:29;101260.88;;;14.10;100.00
9257;BME280;4665;51.368;6.782;2023-08-07T09:20:56;101274.63;;;14.07;100.00
9257;BME280;4665;51.368;6.782;2023-08-07T09:23:22;101276.97;;;14.10;100.00
9257;BME280;4665;51.368;6.782;2023-08-07T09:25:59;101288.03;;;14.07;100.00
9257;BME280;4665;51.368;6.782;2023-08-07T09:28:24;101283.84;;;14.04;100.00
9257;BME280;4665;51.368;6.782;2023-08-07T09:30:52;101291.88;;;14.04;100.00
9257;BME280;4665;51.368;6.782;2023-08-07T09:33:24;101293.19;;;14.08;100.00
9257;BME280;4665;51.368;6.782;2023-08-07T09:35:52;101301.72;;;14.04;100.00
9257;BME280;4665;51.368;6.782;2023-08-07T09:38:17;101315.13;;;14.04;100.00
9257;BME280;4665;51.368;6.782;2023-08-07T09:40:43;101322.66;;;14.08;100.00
9257;BME280;4665;51.368;6.782;2023-08-07T09:43:08;101313.78;;;14.08;100.00
9257;BME280;4665;51.368;6.782;2023-08-07T09:45:34;101316.69;;;14.23;100.00
9257;BME280;4665;51.368;6.782;2023-08-07T09:48:03;101310.81;;;14.19;100.00
9257;BME280;4665;51.368;6.782;2023-08-07T09:50:31;101314.81;;;14.15;100.00
9257;BME280;4665;51.368;6.782;2023-08-07T09:52:56;101317.97;;;14.10;100.00
9257;BME280;4665;51.368;6.782;2023-08-07T09:55:23;101313.81;;;14.24;100.00
9257;BME280;4665;51.368;6.782;2023-08-07T09:57:50;101320.38;;;14.38;100.00
9257;BME280;4665;51.368;6.782;2023-08-07T10:00:16;101313.31;;;14.29;100.00
9257;BME280;4665;51.368;6.782;2023-08-07T10:02:48;101309.31;;;14.33;100.00
9257;BME280;4665;51.368;6.782;2023-08-07T10:05:15;101304.47;;;14.45;100.00
9257;BME280;4665;51.368;6.782;2023-08-07T10:07:41;101313.19;;;14.63;100.00
9257;BME280;4665;51.368;6.782;2023-08-07T10:10:07;101320.09;;;14.74;100.00
9257;BME280;4665;51.368;6.782;2023-08-07T10:12:33;101319.56;;;14.95;100.00
9257;BME280;4665;51.368;6.782;2023-08-07T10:15:00;101309.78;;;15.10;100.00
9257;BME280;4665;51.368;6.782;2023-08-07T10:17:27;101311.28;;;15.21;100.00
9257;BME280;4665;51.368;6.782;2023-08-07T10:19:53;101302.50;;;15.35;100.00
9257;BME280;4665;51.368;6.782;2023-08-07T10:22:19;101301.75;;;15.58;100.00
9257;BME280;4665;51.368;6.782;2023-08-07T10:24:47;101285.78;;;15.65;100.00
9257;BME280;4665;51.368;6.782;2023-08-07T10:27:16;101279.38;;;15.74;100.00
9257;BME280;4665;51.368;6.782;2023-08-07T10:29:44;101275.44;;;15.85;100.00
9257;BME280;4665;51.368;6.782;2023-08-07T10:32:14;101283.81;;;15.90;100.00
9257;BME280;4665;51.368;6.782;2023-08-07T10:34:43;101265.53;;;15.85;100.00
9257;BME280;4665;51.368;6.782;2023-08-07T10:40:04;101272.03;;;15.91;100.00
9257;BME280;4665;51.368;6.782;2023-08-07T10:42:59;101262.00;;;15.85;100.00
9257;BME280;4665;51.368;6.782;2023-08-07T10:45:26;101276.38;;;15.92;100.00
9257;BME280;4665;51.368;6.782;2023-08-07T10:53:34;101270.97;;;15.69;100.00
9257;BME280;4665;51.368;6.782;2023-08-07T10:56:04;101279.06;;;15.61;100.00
9257;BME280;4665;51.368;6.782;2023-08-07T10:58:34;101281.03;;;15.75;100.00
9257;BME280;4665;51.368;6.782;2023-08-07T11:01:20;101289.75;;;15.77;100.00
9257;BME280;4665;51.368;6.782;2023-08-07T11:06:22;101284.72;;;16.05;100.00
9257;BME280;4665;51.368;6.782;2023-08-07T11:08:48;101287.47;;;16.20;100.00
9257;BME280;4665;51.368;6.782;2023-08-07T11:11:14;101287.91;;;16.32;100.00
9257;BME280;4665;51.368;6.782;2023-08-07T11:13:39;101288.00;;;16.38;100.00
9257;BME280;4665;51.368;6.782;2023-08-07T11:16:05;101286.94;;;16.48;100.00
9257;BME280;4665;51.368;6.782;2023-08-07T11:18:31;101293.41;;;16.53;100.00
9257;BME280;4665;51.368;6.782;2023-08-07T11:20:58;101282.19;;;16.50;100.00
9257;BME280;4665;51.368;6.782;2023-08-07T11:23:25;101288.41;;;16.50;100.00
9257;BME280;4665;51.368;6.782;2023-08-07T11:25:51;101282.13;;;16.58;100.00
9257;BME280;4665;51.368;6.782;2023-08-07T11:28:21;101290.47;;;16.63;100.00
9257;BME280;4665;51.368;6.782;2023-08-07T11:30:52;101290.09;;;16.66;100.00
9257;BME280;4665;51.368;6.782;2023-08-07T11:33:18;101298.38;;;16.65;100.00
9257;BME280;4665;51.368;6.782;2023-08-07T11:35:45;101295.31;;;16.68;100.00
9257;BME280;4665;51.368;6.782;2023-08-07T11:38:11;101293.81;;;16.65;100.00
9257;BME280;4665;51.368;6.782;2023-08-07T11:40:36;101305.13;;;16.60;100.00
9257;BME280;4665;51.368;6.782;2023-08-07T11:43:02;101303.47;;;16.59;100.00
9257;BME280;4665;51.368;6.782;2023-08-07T11:45:28;101302.06;;;16.63;100.00
9257;BME280;4665;51.368;6.782;2023-08-07T11:47:54;101312.59;;;16.73;100.00
9257;BME280;4665;51.368;6.782;2023-08-07T11:50:22;101293.94;;;16.72;100.00
9257;BME280;4665;51.368;6.782;2023-08-07T11:52:48;101296.63;;;16.72;100.00
9257;BME280;4665;51.368;6.782;2023-08-07T11:55:17;101298.06;;;16.82;100.00
9257;BME280;4665;51.368;6.782;2023-08-07T11:57:46;101297.34;;;17.03;100.00
9257;BME280;4665;51.368;6.782;2023-08-07T12:00:12;101297.59;;;16.94;100.00
9257;BME280;4665;51.368;6.782;2023-08-07T12:02:41;101315.34;;;16.88;100.00
9257;BME280;4665;51.368;6.782;2023-08-07T12:05:11;101304.81;;;16.78;100.00
9257;BME280;4665;51.368;6.782;2023-08-07T12:07:39;101317.59;;;16.76;100.00
9257;BME280;4665;51.368;6.782;2023-08-07T12:10:09;101312.69;;;16.80;100.00
9257;BME280;4665;51.368;6.782;2023-08-07T12:12:36;101314.84;;;16.85;100.00
9257;BME280;4665;51.368;6.782;2023-08-07T12:15:06;101308.75;;;16.91;100.00
9257;BME280;4665;51.368;6.782;2023-08-07T12:17:32;101325.94;;;17.04;100.00
9257;BME280;4665;51.368;6.782;2023-08-07T12:19:58;101309.50;;;17.14;100.00
9257;BME280;4665;51.368;6.782;2023-08-07T12:22:27;101302.38;;;17.07;100.00
9257;BME280;4665;51.368;6.782;2023-08-07T12:24:53;101323.16;;;17.13;100.00
9257;BME280;4665;51.368;6.782;2023-08-07T12:27:19;101316.94;;;17.12;100.00
9257;BME280;4665;51.368;6.782;2023-08-07T12:29:44;101313.22;;;17.13;100.00
9257;BME280;4665;51.368;6.782;2023-08-07T12:32:10;101314.53;;;17.17;100.00
9257;BME280;4665;51.368;6.782;2023-08-07T12:34:35;101310.69;;;17.27;100.00
9257;BME280;4665;51.368;6.782;2023-08-07T12:37:03;101313.59;;;17.40;100.00
9257;BME280;4665;51.368;6.782;2023-08-07T12:39:29;101320.53;;;17.49;100.00
9257;BME280;4665;51.368;6.782;2023-08-07T12:41:54;101308.38;;;17.53;100.00
9257;BME280;4665;51.368;6.782;2023-08-07T12:44:20;101316.34;;;17.61;100.00
9257;BME280;4665;51.368;6.782;2023-08-07T12:46:46;101308.56;;;17.66;100.00
9257;BME280;4665;51.368;6.782;2023-08-07T12:49:11;101307.13;;;17.71;100.00
9257;BME280;4665;51.368;6.782;2023-08-07T12:51:37;101303.69;;;17.77;100.00
9257;BME280;4665;51.368;6.782;2023-08-07T12:54:02;101309.09;;;17.77;100.00
9257;BME280;4665;51.368;6.782;2023-08-07T12:56:28;101310.47;;;17.73;100.00
9257;BME280;4665;51.368;6.782;2023-08-07T12:58:53;101313.09;;;17.66;100.00
9257;BME280;4665;51.368;6.782;2023-08-07T13:01:18;101313.03;;;17.59;100.00
9257;BME280;4665;51.368;6.782;2023-08-07T13:03:44;101308.91;;;17.63;100.00
9257;BME280;4665;51.368;6.782;2023-08-07T13:06:09;101303.81;;;17.69;100.00
9257;BME280;4665;51.368;6.782;2023-08-07T13:08:37;101311.72;;;17.85;100.00
9257;BME280;4665;51.368;6.782;2023-08-07T13:11:03;101309.84;;;17.85;100.00